sensor_id;sensor_type;location;lat;lon;timestamp;pressure;altitude;pressure_sealevel;temperature;humidity
45793;BME280;31495;42.740;22.908;2023-06-22T00:00:09;93534.75;;;18.83;67.60
45793;BME280;31495;42.740;22.908;2023-06-22T00:01:11;93521.28;;;18.69;67.74
45793;BME280;31495;42.740;22.908;2023-06-22T00:02:10;93539.47;;;18.81;67.76
45793;BME280;31495;42.740;22.908;2023-06-22T00:03:10;93527.06;;;18.71;67.98
45793;BME280;31495;42.740;22.908;2023-06-22T00:04:09;93530.22;;;18.73;67.95
45793;BME280;31495;42.740;22.908;2023-06-22T00:05:09;93535.75;;;18.77;67.69
45793;BME280;31495;42.740;22.908;2023-06-22T00:06:08;93533.38;;;18.75;67.70
45793;BME280;31495;42.740;22.908;2023-06-22T00:07:08;93525.28;;;18.77;66.88
45793;BME280;31495;42.740;22.908;2023-06-22T00:08:08;93526.91;;;18.83;66.50
45793;BME280;31495;42.740;22.908;2023-06-22T00:09:07;93524.94;;;18.68;66.58
45793;BME280;31495;42.740;22.908;2023-06-22T00:10:07;93541.78;;;18.77;66.75
45793;BME280;31495;42.740;22.908;2023-06-22T00:11:06;93548.31;;;18.74;66.83
45793;BME280;31495;42.740;22.908;2023-06-22T00:12:06;93527.56;;;18.68;67.12
45793;BME280;31495;42.740;22.908;2023-06-22T00:13:06;93543.38;;;18.78;66.80
45793;BME280;31495;42.740;22.908;2023-06-22T00:14:06;93531.50;;;18.70;66.73
45793;BME280;31495;42.740;22.908;2023-06-22T00:15:06;93539.72;;;18.79;66.75
45793;BME280;31495;42.740;22.908;2023-06-22T00:16:05;93491.25;;;18.49;66.76
45793;BME280;31495;42.740;22.908;2023-06-22T00:17:05;93517.06;;;18.63;66.94
45793;BME280;31495;42.740;22.908;2023-06-22T00:18:06;93526.03;;;18.72;66.86
45793;BME280;31495;42.740;22.908;2023-06-22T00:19:05;93518.41;;;18.70;66.70
45793;BME280;31495;42.740;22.908;2023-06-22T00:20:07;93530.00;;;18.80;66.64
45793;BME280;31495;42.740;22.908;2023-06-22T00:21:07;93512.63;;;18.68;66.86
45793;BME280;31495;42.740;22.908;2023-06-22T00:22:07;93512.56;;;18.58;67.28
45793;BME280;31495;42.740;22.908;2023-06-22T00:23:06;93504.59;;;18.48;67.14
45793;BME280;31495;42.740;22.908;2023-06-22T00:24:09;93520.88;;;18.50;67.51
45793;BME280;31495;42.740;22.908;2023-06-22T00:25:09;93523.19;;;18.46;67.92
45793;BME280;31495;42.740;22.908;2023-06-22T00:26:08;93524.22;;;18.45;68.03
45793;BME280;31495;42.740;22.908;2023-06-22T00:27:08;93506.84;;;18.34;68.19
45793;BME280;31495;42.740;22.908;2023-06-22T00:28:07;93511.88;;;18.41;68.48
45793;BME280;31495;42.740;22.908;2023-06-22T00:29:07;93513.97;;;18.39;67.79
45793;BME280;31495;42.740;22.908;2023-06-22T00:30:07;93507.47;;;18.46;67.92
45793;BME280;31495;42.740;22.908;2023-06-22T00:31:06;93487.41;;;18.30;68.12
45793;BME280;31495;42.740;22.908;2023-06-22T00:32:06;93515.88;;;18.48;68.11
45793;BME280;31495;42.740;22.908;2023-06-22T00:33:05;93502.66;;;18.38;68.11
45793;BME280;31495;42.740;22.908;2023-06-22T00:34:07;93517.41;;;18.44;68.12
45793;BME280;31495;42.740;22.908;2023-06-22T00:35:08;93513.97;;;18.39;68.22
45793;BME280;31495;42.740;22.908;2023-06-22T00:36:08;93503.94;;;18.30;68.37
45793;BME280;31495;42.740;22.908;2023-06-22T00:37:07;93523.63;;;18.38;68.21
45793;BME280;31495;42.740;22.908;2023-06-22T00:38:07;93483.13;;;18.18;67.96
45793;BME280;31495;42.740;22.908;2023-06-22T00:39:07;93515.28;;;18.41;68.39
45793;BME280;31495;42.740;22.908;2023-06-22T00:40:08;93512.97;;;18.45;68.54
45793;BME280;31495;42.740;22.908;2023-06-22T00:41:08;93506.66;;;18.46;68.20
45793;BME280;31495;42.740;22.908;2023-06-22T00:42:07;93500.84;;;18.39;68.48
45793;BME280;31495;42.740;22.908;2023-06-22T00:43:06;93523.44;;;18.45;68.65
45793;BME280;31495;42.740;22.908;2023-06-22T00:44:06;93495.47;;;18.23;68.80
45793;BME280;31495;42.740;22.908;2023-06-22T00:45:07;93532.78;;;18.35;68.67
45793;BME280;31495;42.740;22.908;2023-06-22T00:46:07;93522.41;;;18.18;68.99
45793;BME280;31495;42.740;22.908;2023-06-22T00:47:07;93523.94;;;18.14;69.02
45793;BME280;31495;42.740;22.908;2023-06-22T00:48:07;93520.25;;;18.10;69.14
45793;BME280;31495;42.740;22.908;2023-06-22T00:49:07;93526.66;;;18.25;69.04
45793;BME280;31495;42.740;22.908;2023-06-22T00:50:07;93531.63;;;18.26;69.11
45793;BME280;31495;42.740;22.908;2023-06-22T00:51:09;93518.22;;;18.17;69.30
45793;BME280;31495;42.740;22.908;2023-06-22T00:52:10;93540.56;;;18.25;69.10
45793;BME280;31495;42.740;22.908;2023-06-22T00:53:13;93520.78;;;18.12;69.21
45793;BME280;31495;42.740;22.908;2023-06-22T00:54:12;93517.06;;;18.08;69.29
45793;BME280;31495;42.740;22.908;2023-06-22T00:55:13;93526.59;;;18.19;69.18
45793;BME280;31495;42.740;22.908;2023-06-22T00:56:13;93507.63;;;18.07;69.45
45793;BME280;31495;42.740;22.908;2023-06-22T00:57:13;93532.09;;;18.18;69.30
45793;BME280;31495;42.740;22.908;2023-06-22T00:58:15;93528.34;;;18.09;69.79
45793;BME280;31495;42.740;22.908;2023-06-22T00:59:15;93539.06;;;18.07;70.14
45793;BME280;31495;42.740;22.908;2023-06-22T01:00:17;93541.88;;;18.00;70.38
45793;BME280;31495;42.740;22.908;2023-06-22T01:01:19;93509.66;;;17.78;70.51
45793;BME280;31495;42.740;22.908;2023-06-22T01:02:22;93534.25;;;17.99;70.44
45793;BME280;31495;42.740;22.908;2023-06-22T01:03:22;93538.75;;;18.04;70.24
45793;BME280;31495;42.740;22.908;2023-06-22T01:04:24;93545.91;;;18.13;69.94
45793;BME280;31495;42.740;22.908;2023-06-22T01:05:33;93530.97;;;18.09;69.91
45793;BME280;31495;42.740;22.908;2023-06-22T01:06:35;93541.97;;;18.11;69.91
45793;BME280;31495;42.740;22.908;2023-06-22T01:09:19;93535.81;;;18.00;70.84
45793;BME280;31495;42.740;22.908;2023-06-22T01:11:37;93525.00;;;17.91;71.90
45793;BME280;31495;42.740;22.908;2023-06-22T01:12:42;93530.94;;;17.87;71.91
45793;BME280;31495;42.740;22.908;2023-06-22T01:14:12;93547.53;;;17.92;71.82
45793;BME280;31495;42.740;22.908;2023-06-22T01:15:22;93524.06;;;17.80;71.82
45793;BME280;31495;42.740;22.908;2023-06-22T01:16:25;93537.72;;;17.82;71.65
45793;BME280;31495;42.740;22.908;2023-06-22T01:17:26;93533.09;;;17.90;71.90
45793;BME280;31495;42.740;22.908;2023-06-22T01:18:26;93538.09;;;17.91;71.63
45793;BME280;31495;42.740;22.908;2023-06-22T01:20:41;93542.78;;;17.89;71.73
45793;BME280;31495;42.740;22.908;2023-06-22T01:21:40;93527.19;;;17.77;71.62
45793;BME280;31495;42.740;22.908;2023-06-22T01:24:23;93548.63;;;17.74;72.00
45793;BME280;31495;42.740;22.908;2023-06-22T01:25:33;93557.97;;;17.70;72.62
45793;BME280;31495;42.740;22.908;2023-06-22T01:26:42;93560.34;;;17.72;72.69
45793;BME280;31495;42.740;22.908;2023-06-22T01:29:17;93562.22;;;17.54;73.59
45793;BME280;31495;42.740;22.908;2023-06-22T01:30:18;93564.81;;;17.54;73.62
45793;BME280;31495;42.740;22.908;2023-06-22T01:31:26;93571.97;;;17.59;73.76
45793;BME280;31495;42.740;22.908;2023-06-22T01:32:33;93549.38;;;17.53;73.15
45793;BME280;31495;42.740;22.908;2023-06-22T01:33:35;93559.69;;;17.59;72.71
45793;BME280;31495;42.740;22.908;2023-06-22T01:34:36;93555.91;;;17.50;73.52
45793;BME280;31495;42.740;22.908;2023-06-22T01:35:39;93548.94;;;17.39;73.78
45793;BME280;31495;42.740;22.908;2023-06-22T01:36:40;93575.00;;;17.51;74.25
45793;BME280;31495;42.740;22.908;2023-06-22T01:37:40;93551.25;;;17.35;74.38
45793;BME280;31495;42.740;22.908;2023-06-22T01:38:40;93570.22;;;17.48;74.13
45793;BME280;31495;42.740;22.908;2023-06-22T01:39:41;93522.19;;;17.15;74.25
45793;BME280;31495;42.740;22.908;2023-06-22T01:40:41;93555.84;;;17.45;74.37
45793;BME280;31495;42.740;22.908;2023-06-22T01:41:42;93545.47;;;17.33;74.11
45793;BME280;31495;42.740;22.908;2023-06-22T01:42:42;93563.91;;;17.43;73.81
45793;BME280;31495;42.740;22.908;2023-06-22T01:43:42;93536.81;;;17.33;73.59
45793;BME280;31495;42.740;22.908;2023-06-22T01:44:43;93555.53;;;17.41;73.75
45793;BME280;31495;42.740;22.908;2023-06-22T01:45:43;93540.25;;;17.33;74.01
45793;BME280;31495;42.740;22.908;2023-06-22T01:46:43;93533.22;;;17.17;74.21
45793;BME280;31495;42.740;22.908;2023-06-22T01:47:43;93563.63;;;17.23;74.39
45793;BME280;31495;42.740;22.908;2023-06-22T01:48:43;93558.13;;;17.02;75.48
45793;BME280;31495;42.740;22.908;2023-06-22T01:49:43;93565.78;;;17.09;75.68
45793;BME280;31495;42.740;22.908;2023-06-22T01:50:43;93568.41;;;17.09;76.14
45793;BME280;31495;42.740;22.908;2023-06-22T01:51:42;93565.72;;;17.04;75.80
45793;BME280;31495;42.740;22.908;2023-06-22T01:52:42;93539.91;;;16.90;75.98
45793;BME280;31495;42.740;22.908;2023-06-22T01:53:42;93564.03;;;17.15;75.87
45793;BME280;31495;42.740;22.908;2023-06-22T01:54:42;93568.06;;;17.22;76.13
45793;BME280;31495;42.740;22.908;2023-06-22T01:55:41;93532.53;;;17.04;75.54
45793;BME280;31495;42.740;22.908;2023-06-22T01:56:41;93547.31;;;17.16;75.75
45793;BME280;31495;42.740;22.908;2023-06-22T01:57:40;93543.13;;;17.15;75.54
45793;BME280;31495;42.740;22.908;2023-06-22T01:58:48;93554.28;;;17.27;75.27
45793;BME280;31495;42.740;22.908;2023-06-22T02:01:11;93549.28;;;17.25;75.13
45793;BME280;31495;42.740;22.908;2023-06-22T02:02:15;93565.34;;;17.34;75.00
45793;BME280;31495;42.740;22.908;2023-06-22T02:03:28;93551.38;;;17.23;74.81
45793;BME280;31495;42.740;22.908;2023-06-22T02:04:46;93547.88;;;17.18;75.23
45793;BME280;31495;42.740;22.908;2023-06-22T02:05:55;93550.00;;;17.21;74.72
45793;BME280;31495;42.740;22.908;2023-06-22T02:06:58;93543.94;;;17.15;75.14
45793;BME280;31495;42.740;22.908;2023-06-22T02:08:22;93553.56;;;17.15;75.34
45793;BME280;31495;42.740;22.908;2023-06-22T02:09:23;93545.66;;;17.09;75.46
45793;BME280;31495;42.740;22.908;2023-06-22T02:10:26;93528.47;;;16.97;75.19
45793;BME280;31495;42.740;22.908;2023-06-22T02:11:28;93552.47;;;17.11;75.22
45793;BME280;31495;42.740;22.908;2023-06-22T02:12:29;93543.84;;;16.93;75.51
45793;BME280;31495;42.740;22.908;2023-06-22T02:13:30;93567.44;;;16.98;76.09
45793;BME280;31495;42.740;22.908;2023-06-22T02:14:30;93543.41;;;16.67;76.30
45793;BME280;31495;42.740;22.908;2023-06-22T02:15:30;93555.22;;;16.70;77.17
45793;BME280;31495;42.740;22.908;2023-06-22T02:16:31;93539.16;;;16.61;77.39
45793;BME280;31495;42.740;22.908;2023-06-22T02:17:31;93560.06;;;16.78;77.44
45793;BME280;31495;42.740;22.908;2023-06-22T02:18:32;93562.13;;;16.76;77.49
45793;BME280;31495;42.740;22.908;2023-06-22T02:19:31;93518.31;;;16.49;77.20
45793;BME280;31495;42.740;22.908;2023-06-22T02:20:32;93548.25;;;16.76;77.01
45793;BME280;31495;42.740;22.908;2023-06-22T02:21:32;93545.16;;;16.79;76.80
45793;BME280;31495;42.740;22.908;2023-06-22T02:22:31;93549.25;;;16.86;76.44
45793;BME280;31495;42.740;22.908;2023-06-22T02:23:31;93532.34;;;16.77;77.01
45793;BME280;31495;42.740;22.908;2023-06-22T02:24:34;93562.47;;;16.97;76.91
45793;BME280;31495;42.740;22.908;2023-06-22T02:25:34;93543.69;;;16.83;76.71
45793;BME280;31495;42.740;22.908;2023-06-22T02:26:33;93559.31;;;16.95;76.77
45793;BME280;31495;42.740;22.908;2023-06-22T02:27:33;93564.59;;;17.00;76.93
45793;BME280;31495;42.740;22.908;2023-06-22T02:28:33;93567.22;;;17.00;76.88
45793;BME280;31495;42.740;22.908;2023-06-22T02:29:33;93573.31;;;17.05;76.75
45793;BME280;31495;42.740;22.908;2023-06-22T02:30:32;93554.38;;;16.98;77.06
45793;BME280;31495;42.740;22.908;2023-06-22T02:31:32;93553.13;;;17.01;77.13
45793;BME280;31495;42.740;22.908;2023-06-22T02:32:31;93535.22;;;16.93;77.37
45793;BME280;31495;42.740;22.908;2023-06-22T02:33:33;93545.28;;;17.01;77.57
45793;BME280;31495;42.740;22.908;2023-06-22T02:34:33;93545.81;;;17.03;77.35
45793;BME280;31495;42.740;22.908;2023-06-22T02:35:33;93541.38;;;17.03;77.43
45793;BME280;31495;42.740;22.908;2023-06-22T02:36:34;93536.38;;;17.02;76.25
45793;BME280;31495;42.740;22.908;2023-06-22T02:37:35;93543.94;;;17.15;75.47
45793;BME280;31495;42.740;22.908;2023-06-22T02:38:38;93541.72;;;17.07;75.31
45793;BME280;31495;42.740;22.908;2023-06-22T02:39:38;93521.69;;;16.96;75.47
45793;BME280;31495;42.740;22.908;2023-06-22T02:40:38;93525.38;;;17.00;74.59
45793;BME280;31495;42.740;22.908;2023-06-22T02:41:37;93553.63;;;17.20;74.22
45793;BME280;31495;42.740;22.908;2023-06-22T02:42:37;93556.03;;;17.21;74.40
45793;BME280;31495;42.740;22.908;2023-06-22T02:43:36;93565.69;;;17.21;73.67
45793;BME280;31495;42.740;22.908;2023-06-22T02:44:36;93531.66;;;16.99;73.41
45793;BME280;31495;42.740;22.908;2023-06-22T02:45:36;93550.72;;;17.16;73.05
45793;BME280;31495;42.740;22.908;2023-06-22T02:46:35;93564.59;;;17.17;73.36
45793;BME280;31495;42.740;22.908;2023-06-22T02:47:35;93549.28;;;17.08;73.15
45793;BME280;31495;42.740;22.908;2023-06-22T02:48:35;93564.03;;;17.15;73.31
45793;BME280;31495;42.740;22.908;2023-06-22T02:49:35;93552.72;;;17.09;73.61
45793;BME280;31495;42.740;22.908;2023-06-22T02:50:34;93555.34;;;17.09;73.69
45793;BME280;31495;42.740;22.908;2023-06-22T02:51:34;93562.13;;;17.10;73.52
45793;BME280;31495;42.740;22.908;2023-06-22T02:52:33;93551.22;;;16.96;73.58
45793;BME280;31495;42.740;22.908;2023-06-22T02:53:33;93578.63;;;17.11;73.43
45793;BME280;31495;42.740;22.908;2023-06-22T02:54:32;93557.47;;;16.95;73.60
45793;BME280;31495;42.740;22.908;2023-06-22T02:55:33;93570.22;;;17.08;73.61
45793;BME280;31495;42.740;22.908;2023-06-22T02:56:32;93574.66;;;17.08;74.00
45793;BME280;31495;42.740;22.908;2023-06-22T02:57:31;93553.53;;;16.93;74.11
45793;BME280;31495;42.740;22.908;2023-06-22T02:58:31;93571.50;;;17.06;74.45
45793;BME280;31495;42.740;22.908;2023-06-22T02:59:37;93566.25;;;17.06;73.68
45793;BME280;31495;42.740;22.908;2023-06-22T03:00:40;93558.59;;;16.99;73.76
45793;BME280;31495;42.740;22.908;2023-06-22T03:01:39;93544.63;;;16.94;73.84
45793;BME280;31495;42.740;22.908;2023-06-22T03:02:39;93575.06;;;17.17;73.93
45793;BME280;31495;42.740;22.908;2023-06-22T03:03:38;93528.56;;;16.85;73.72
45793;BME280;31495;42.740;22.908;2023-06-22T03:04:38;93544.75;;;16.99;73.97
45793;BME280;31495;42.740;22.908;2023-06-22T03:05:37;93564.19;;;17.08;73.83
45793;BME280;31495;42.740;22.908;2023-06-22T03:06:37;93565.38;;;17.00;74.13
45793;BME280;31495;42.740;22.908;2023-06-22T03:07:38;93582.97;;;17.05;74.48
45793;BME280;31495;42.740;22.908;2023-06-22T03:08:37;93595.50;;;17.03;74.72
45793;BME280;31495;42.740;22.908;2023-06-22T03:09:37;93588.84;;;16.95;75.18
45793;BME280;31495;42.740;22.908;2023-06-22T03:10:36;93593.50;;;16.93;75.26
45793;BME280;31495;42.740;22.908;2023-06-22T03:11:36;93577.75;;;16.88;75.46
45793;BME280;31495;42.740;22.908;2023-06-22T03:12:36;93576.75;;;16.89;75.75
45793;BME280;31495;42.740;22.908;2023-06-22T03:13:37;93585.91;;;17.08;75.47
45793;BME280;31495;42.740;22.908;2023-06-22T03:14:36;93561.19;;;16.99;74.88
45793;BME280;31495;42.740;22.908;2023-06-22T03:15:35;93562.06;;;17.05;74.31
45793;BME280;31495;42.740;22.908;2023-06-22T03:16:35;93580.84;;;17.19;74.41
45793;BME280;31495;42.740;22.908;2023-06-22T03:17:37;93574.19;;;17.11;74.32
45793;BME280;31495;42.740;22.908;2023-06-22T03:18:37;93563.03;;;16.99;74.79
45793;BME280;31495;42.740;22.908;2023-06-22T03:19:37;93574.59;;;17.03;74.93
45793;BME280;31495;42.740;22.908;2023-06-22T03:20:36;93560.91;;;16.96;74.81
45793;BME280;31495;42.740;22.908;2023-06-22T03:21:37;93581.63;;;17.02;74.82
45793;BME280;31495;42.740;22.908;2023-06-22T03:22:37;93600.09;;;17.13;74.92
45793;BME280;31495;42.740;22.908;2023-06-22T03:23:37;93583.84;;;16.94;75.10
45793;BME280;31495;42.740;22.908;2023-06-22T03:24:37;93599.63;;;16.99;74.91
45793;BME280;31495;42.740;22.908;2023-06-22T03:25:38;93588.88;;;16.83;75.04
45793;BME280;31495;42.740;22.908;2023-06-22T03:26:37;93596.69;;;16.95;74.87
45793;BME280;31495;42.740;22.908;2023-06-22T03:27:41;93609.94;;;17.05;74.81
45793;BME280;31495;42.740;22.908;2023-06-22T03:28:41;93617.78;;;17.05;74.45
45793;BME280;31495;42.740;22.908;2023-06-22T03:29:40;93610.41;;;17.02;74.85
45793;BME280;31495;42.740;22.908;2023-06-22T03:30:40;93607.31;;;17.05;74.87
45793;BME280;31495;42.740;22.908;2023-06-22T03:31:39;93588.59;;;16.97;75.00
45793;BME280;31495;42.740;22.908;2023-06-22T03:32:39;93594.63;;;16.97;75.24
45793;BME280;31495;42.740;22.908;2023-06-22T03:33:39;93594.53;;;16.92;75.09
45793;BME280;31495;42.740;22.908;2023-06-22T03:34:38;93601.44;;;16.98;75.43
45793;BME280;31495;42.740;22.908;2023-06-22T03:35:38;93581.00;;;16.95;75.26
45793;BME280;31495;42.740;22.908;2023-06-22T03:36:37;93576.22;;;16.92;75.49
45793;BME280;31495;42.740;22.908;2023-06-22T03:37:37;93615.31;;;17.16;75.23
45793;BME280;31495;42.740;22.908;2023-06-22T03:38:37;93604.94;;;17.04;75.37
45793;BME280;31495;42.740;22.908;2023-06-22T03:39:37;93597.09;;;17.04;75.51
45793;BME280;31495;42.740;22.908;2023-06-22T03:40:36;93617.38;;;17.14;75.72
45793;BME280;31495;42.740;22.908;2023-06-22T03:41:36;93620.22;;;17.12;75.90
45793;BME280;31495;42.740;22.908;2023-06-22T03:42:35;93600.72;;;17.03;75.63
45793;BME280;31495;42.740;22.908;2023-06-22T03:43:35;93590.75;;;17.00;75.67
45793;BME280;31495;42.740;22.908;2023-06-22T03:44:35;93594.00;;;17.07;75.21
45793;BME280;31495;42.740;22.908;2023-06-22T03:45:35;93594.31;;;17.11;74.84
45793;BME280;31495;42.740;22.908;2023-06-22T03:46:35;93593.72;;;17.08;74.98
45793;BME280;31495;42.740;22.908;2023-06-22T03:47:34;93595.63;;;17.13;75.15
45793;BME280;31495;42.740;22.908;2023-06-22T03:48:33;93603.16;;;17.26;75.62
45793;BME280;31495;42.740;22.908;2023-06-22T03:49:33;93615.03;;;17.34;75.45
45793;BME280;31495;42.740;22.908;2023-06-22T03:50:33;93613.72;;;17.32;75.45
45793;BME280;31495;42.740;22.908;2023-06-22T03:51:33;93603.97;;;17.27;75.64
45793;BME280;31495;42.740;22.908;2023-06-22T03:52:32;93591.47;;;17.12;76.04
45793;BME280;31495;42.740;22.908;2023-06-22T03:53:32;93591.47;;;17.12;76.14
45793;BME280;31495;42.740;22.908;2023-06-22T03:54:31;93604.53;;;17.12;76.33
45793;BME280;31495;42.740;22.908;2023-06-22T03:55:33;93586.78;;;17.14;76.81
45793;BME280;31495;42.740;22.908;2023-06-22T03:56:33;93581.47;;;17.09;76.58
45793;BME280;31495;42.740;22.908;2023-06-22T03:57:32;93598.66;;;17.22;76.50
45793;BME280;31495;42.740;22.908;2023-06-22T03:58:32;93596.84;;;17.22;76.98
45793;BME280;31495;42.740;22.908;2023-06-22T03:59:32;93579.66;;;17.09;77.29
45793;BME280;31495;42.740;22.908;2023-06-22T04:00:32;93580.19;;;17.12;77.33
45793;BME280;31495;42.740;22.908;2023-06-22T04:01:31;93598.25;;;17.30;77.17
45793;BME280;31495;42.740;22.908;2023-06-22T04:02:31;93581.44;;;17.26;76.72
45793;BME280;31495;42.740;22.908;2023-06-22T04:03:30;93606.00;;;17.42;76.93
45793;BME280;31495;42.740;22.908;2023-06-22T04:04:30;93588.88;;;17.34;76.55
45793;BME280;31495;42.740;22.908;2023-06-22T04:05:29;93574.97;;;17.29;76.55
45793;BME280;31495;42.740;22.908;2023-06-22T04:06:29;93579.22;;;17.35;76.62
45793;BME280;31495;42.740;22.908;2023-06-22T04:07:28;93593.00;;;17.47;76.96
45793;BME280;31495;42.740;22.908;2023-06-22T04:08:28;93601.16;;;17.51;76.71
45793;BME280;31495;42.740;22.908;2023-06-22T04:09:27;93601.44;;;17.54;76.88
45793;BME280;31495;42.740;22.908;2023-06-22T04:10:27;93566.47;;;17.38;76.43
45793;BME280;31495;42.740;22.908;2023-06-22T04:11:26;93576.53;;;17.47;76.33
45793;BME280;31495;42.740;22.908;2023-06-22T04:12:25;93578.31;;;17.46;76.76
45793;BME280;31495;42.740;22.908;2023-06-22T04:13:25;93582.19;;;17.60;76.57
45793;BME280;31495;42.740;22.908;2023-06-22T04:14:24;93567.69;;;17.53;76.46
45793;BME280;31495;42.740;22.908;2023-06-22T04:15:23;93565.06;;;17.53;76.33
45793;BME280;31495;42.740;22.908;2023-06-22T04:16:23;93573.13;;;17.68;75.81
45793;BME280;31495;42.740;22.908;2023-06-22T04:17:23;93587.97;;;17.85;75.87
45793;BME280;31495;42.740;22.908;2023-06-22T04:18:23;93594.56;;;17.87;75.95
45793;BME280;31495;42.740;22.908;2023-06-22T04:19:23;93569.97;;;17.66;76.24
45793;BME280;31495;42.740;22.908;2023-06-22T04:20:23;93583.47;;;17.80;76.29
45793;BME280;31495;42.740;22.908;2023-06-22T04:21:25;93568.50;;;17.75;76.41
45793;BME280;31495;42.740;22.908;2023-06-22T04:22:24;93582.75;;;17.85;76.39
45793;BME280;31495;42.740;22.908;2023-06-22T04:23:24;93574.91;;;17.85;76.67
45793;BME280;31495;42.740;22.908;2023-06-22T04:24:23;93562.28;;;17.81;76.30
45793;BME280;31495;42.740;22.908;2023-06-22T04:25:23;93559.72;;;17.87;76.43
45793;BME280;31495;42.740;22.908;2023-06-22T04:26:22;93562.06;;;17.83;76.50
45793;BME280;31495;42.740;22.908;2023-06-22T04:27:22;93573.06;;;17.85;76.51
45793;BME280;31495;42.740;22.908;2023-06-22T04:28:22;93584.31;;;18.03;76.85
45793;BME280;31495;42.740;22.908;2023-06-22T04:29:21;93579.25;;;17.96;77.05
45793;BME280;31495;42.740;22.908;2023-06-22T04:30:27;93580.34;;;18.00;77.41
45793;BME280;31495;42.740;22.908;2023-06-22T04:31:28;93602.97;;;18.11;77.41
45793;BME280;31495;42.740;22.908;2023-06-22T04:32:31;93562.72;;;17.95;77.30
45793;BME280;31495;42.740;22.908;2023-06-22T04:33:31;93582.28;;;18.10;77.79
45793;BME280;31495;42.740;22.908;2023-06-22T04:34:31;93585.72;;;18.10;77.83
45793;BME280;31495;42.740;22.908;2023-06-22T04:35:31;93589.88;;;18.11;77.93
45793;BME280;31495;42.740;22.908;2023-06-22T04:36:38;93592.56;;;18.16;77.93
45793;BME280;31495;42.740;22.908;2023-06-22T04:37:38;93587.88;;;17.96;78.84
45793;BME280;31495;42.740;22.908;2023-06-22T04:38:39;93584.00;;;17.99;78.48
45793;BME280;31495;42.740;22.908;2023-06-22T04:39:39;93572.47;;;18.00;78.54
45793;BME280;31495;42.740;22.908;2023-06-22T04:40:41;93574.66;;;18.08;78.48
45793;BME280;31495;42.740;22.908;2023-06-22T04:41:41;93603.41;;;18.25;78.41
45793;BME280;31495;42.740;22.908;2023-06-22T04:42:43;93596.94;;;18.33;78.65
45793;BME280;31495;42.740;22.908;2023-06-22T04:43:51;93605.88;;;18.37;78.34
45793;BME280;31495;42.740;22.908;2023-06-22T04:44:53;93589.31;;;18.31;78.24
45793;BME280;31495;42.740;22.908;2023-06-22T04:45:53;93598.84;;;18.43;78.13
45793;BME280;31495;42.740;22.908;2023-06-22T04:47:00;93590.16;;;18.37;78.03
45793;BME280;31495;42.740;22.908;2023-06-22T04:48:02;93601.00;;;18.46;78.36
45793;BME280;31495;42.740;22.908;2023-06-22T04:49:01;93588.69;;;18.46;78.62
45793;BME280;31495;42.740;22.908;2023-06-22T04:50:00;93558.94;;;18.30;78.63
45793;BME280;31495;42.740;22.908;2023-06-22T04:51:04;93586.13;;;18.51;78.71
45793;BME280;31495;42.740;22.908;2023-06-22T04:52:06;93595.16;;;18.66;78.71
45793;BME280;31495;42.740;22.908;2023-06-22T04:53:06;93569.84;;;18.49;78.83
45793;BME280;31495;42.740;22.908;2023-06-22T04:54:07;93578.59;;;18.60;78.73
45793;BME280;31495;42.740;22.908;2023-06-22T04:55:07;93584.41;;;18.67;78.42
45793;BME280;31495;42.740;22.908;2023-06-22T04:56:08;93579.75;;;18.69;78.62
45793;BME280;31495;42.740;22.908;2023-06-22T04:57:08;93571.81;;;18.64;78.33
45793;BME280;31495;42.740;22.908;2023-06-22T04:58:10;93582.66;;;18.73;78.52
45793;BME280;31495;42.740;22.908;2023-06-22T04:59:12;93588.78;;;18.84;77.95
45793;BME280;31495;42.740;22.908;2023-06-22T05:00:12;93579.03;;;18.79;77.80
45793;BME280;31495;42.740;22.908;2023-06-22T05:01:12;93589.38;;;18.91;77.91
45793;BME280;31495;42.740;22.908;2023-06-22T05:02:12;93574.34;;;18.81;77.85
45793;BME280;31495;42.740;22.908;2023-06-22T05:03:11;93578.09;;;18.90;77.76
45793;BME280;31495;42.740;22.908;2023-06-22T05:04:11;93591.31;;;19.01;77.81
45793;BME280;31495;42.740;22.908;2023-06-22T05:05:10;93588.97;;;19.04;77.47
45793;BME280;31495;42.740;22.908;2023-06-22T05:06:12;93575.28;;;18.97;77.36
45793;BME280;31495;42.740;22.908;2023-06-22T05:07:13;93587.13;;;19.05;77.88
45793;BME280;31495;42.740;22.908;2023-06-22T05:08:13;93594.53;;;19.13;77.39
45793;BME280;31495;42.740;22.908;2023-06-22T05:09:12;93585.63;;;19.14;77.49
45793;BME280;31495;42.740;22.908;2023-06-22T05:10:12;93604.84;;;19.25;77.35
45793;BME280;31495;42.740;22.908;2023-06-22T05:11:12;93605.66;;;19.31;77.43
45793;BME280;31495;42.740;22.908;2023-06-22T05:12:11;93588.81;;;19.21;77.21
45793;BME280;31495;42.740;22.908;2023-06-22T05:13:11;93593.84;;;19.28;76.84
45793;BME280;31495;42.740;22.908;2023-06-22T05:14:11;93587.53;;;19.24;77.05
45793;BME280;31495;42.740;22.908;2023-06-22T05:15:10;93577.78;;;19.19;76.89
45793;BME280;31495;42.740;22.908;2023-06-22T05:16:10;93531.72;;;18.91;77.06
45793;BME280;31495;42.740;22.908;2023-06-22T05:17:09;93608.88;;;19.43;77.38
45793;BME280;31495;42.740;22.908;2023-06-22T05:18:13;93608.94;;;19.48;77.07
45793;BME280;31495;42.740;22.908;2023-06-22T05:19:12;93599.19;;;19.43;77.25
45793;BME280;31495;42.740;22.908;2023-06-22T05:20:12;93613.72;;;19.56;77.37
45793;BME280;31495;42.740;22.908;2023-06-22T05:21:12;93606.38;;;19.58;77.30
45793;BME280;31495;42.740;22.908;2023-06-22T05:22:11;93596.34;;;19.50;77.20
45793;BME280;31495;42.740;22.908;2023-06-22T05:23:11;93610.56;;;19.59;77.73
45793;BME280;31495;42.740;22.908;2023-06-22T05:24:11;93613.50;;;19.63;77.31
45793;BME280;31495;42.740;22.908;2023-06-22T05:25:11;93593.47;;;19.52;77.26
45793;BME280;31495;42.740;22.908;2023-06-22T05:26:10;93622.44;;;19.72;77.42